sensor_id;sensor_type;location;lat;lon;timestamp;P1;durP1;ratioP1;P2;durP2;ratioP2
11052;SDS011;55230;42.602;23.470;2022-12-18T00:02:00;13.23;;;9.93;;
11052;SDS011;55230;42.602;23.470;2022-12-18T00:04:27;9.13;;;6.93;;
11052;SDS011;55230;42.602;23.470;2022-12-18T00:06:55;7.00;;;6.03;;
11052;SDS011;55230;42.602;23.470;2022-12-18T00:09:22;7.57;;;6.07;;
11052;SDS011;55230;42.602;23.470;2022-12-18T00:11:49;8.70;;;7.30;;
11052;SDS011;55230;42.602;23.470;2022-12-18T00:14:15;8.50;;;7.00;;
11052;SDS011;55230;42.602;23.470;2022-12-18T00:16:43;9.03;;;7.27;;
11052;SDS011;55230;42.602;23.470;2022-12-18T00:19:10;6.87;;;5.87;;
11052;SDS011;55230;42.602;23.470;2022-12-18T00:21:36;6.77;;;5.53;;
11052;SDS011;55230;42.602;23.470;2022-12-18T00:24:05;6.47;;;5.80;;
11052;SDS011;55230;42.602;23.470;2022-12-18T00:26:32;8.60;;;7.03;;
11052;SDS011;55230;42.602;23.470;2022-12-18T00:29:01;6.43;;;5.80;;
11052;SDS011;55230;42.602;23.470;2022-12-18T00:31:29;6.60;;;5.23;;
11052;SDS011;55230;42.602;23.470;2022-12-18T00:33:56;8.13;;;6.63;;
11052;SDS011;55230;42.602;23.470;2022-12-18T00:36:24;6.87;;;4.97;;
11052;SDS011;55230;42.602;23.470;2022-12-18T00:38:53;7.50;;;6.10;;
11052;SDS011;55230;42.602;23.470;2022-12-18T00:41:22;4.83;;;4.33;;
11052;SDS011;55230;42.602;23.470;2022-12-18T00:44:07;5.63;;;4.93;;
11052;SDS011;55230;42.602;23.470;2022-12-18T00:46:36;15.23;;;9.63;;
11052;SDS011;55230;42.602;23.470;2022-12-18T00:49:03;6.10;;;5.17;;
11052;SDS011;55230;42.602;23.470;2022-12-18T00:51:30;5.70;;;5.10;;
11052;SDS011;55230;42.602;23.470;2022-12-18T00:53:56;6.37;;;4.83;;
11052;SDS011;55230;42.602;23.470;2022-12-18T00:56:25;6.87;;;5.20;;
11052;SDS011;55230;42.602;23.470;2022-12-18T00:58:51;6.37;;;5.33;;
11052;SDS011;55230;42.602;23.470;2022-12-18T01:01:18;5.93;;;4.80;;
11052;SDS011;55230;42.602;23.470;2022-12-18T01:03:45;6.10;;;5.00;;
11052;SDS011;55230;42.602;23.470;2022-12-18T01:06:12;6.07;;;5.40;;
11052;SDS011;55230;42.602;23.470;2022-12-18T01:08:40;9.07;;;6.63;;
11052;SDS011;55230;42.602;23.470;2022-12-18T01:11:07;7.23;;;5.60;;
11052;SDS011;55230;42.602;23.470;2022-12-18T01:13:37;6.67;;;5.80;;
11052;SDS011;55230;42.602;23.470;2022-12-18T01:16:04;8.00;;;6.10;;
11052;SDS011;55230;42.602;23.470;2022-12-18T01:18:31;6.07;;;5.17;;
11052;SDS011;55230;42.602;23.470;2022-12-18T01:20:58;6.47;;;5.23;;
11052;SDS011;55230;42.602;23.470;2022-12-18T01:23:25;7.50;;;5.43;;
11052;SDS011;55230;42.602;23.470;2022-12-18T01:25:51;5.43;;;4.70;;
11052;SDS011;55230;42.602;23.470;2022-12-18T01:28:18;6.40;;;5.07;;
11052;SDS011;55230;42.602;23.470;2022-12-18T01:30:46;7.90;;;6.50;;
11052;SDS011;55230;42.602;23.470;2022-12-18T01:33:13;8.30;;;6.53;;
11052;SDS011;55230;42.602;23.470;2022-12-18T01:35:40;8.07;;;6.13;;
11052;SDS011;55230;42.602;23.470;2022-12-18T01:38:08;8.40;;;6.73;;
11052;SDS011;55230;42.602;23.470;2022-12-18T01:40:35;6.70;;;5.63;;
11052;SDS011;55230;42.602;23.470;2022-12-18T01:43:01;7.07;;;5.87;;
11052;SDS011;55230;42.602;23.470;2022-12-18T01:45:28;7.23;;;5.80;;
11052;SDS011;55230;42.602;23.470;2022-12-18T01:47:58;7.53;;;5.77;;
11052;SDS011;55230;42.602;23.470;2022-12-18T01:50:28;8.20;;;6.23;;
11052;SDS011;55230;42.602;23.470;2022-12-18T01:52:59;7.30;;;5.70;;
11052;SDS011;55230;42.602;23.470;2022-12-18T01:55:30;6.33;;;5.13;;
11052;SDS011;55230;42.602;23.470;2022-12-18T01:58:01;6.30;;;5.23;;
11052;SDS011;55230;42.602;23.470;2022-12-18T02:00:28;6.57;;;4.93;;
11052;SDS011;55230;42.602;23.470;2022-12-18T02:02:56;5.90;;;5.03;;
11052;SDS011;55230;42.602;23.470;2022-12-18T02:05:26;6.67;;;5.23;;
11052;SDS011;55230;42.602;23.470;2022-12-18T02:08:03;6.17;;;5.10;;
11052;SDS011;55230;42.602;23.470;2022-12-18T02:10:37;8.13;;;5.70;;
11052;SDS011;55230;42.602;23.470;2022-12-18T02:13:12;6.37;;;5.23;;
11052;SDS011;55230;42.602;23.470;2022-12-18T02:15:48;9.47;;;5.90;;
11052;SDS011;55230;42.602;23.470;2022-12-18T02:18:23;7.50;;;5.93;;
11052;SDS011;55230;42.602;23.470;2022-12-18T02:20:55;8.03;;;6.10;;
11052;SDS011;55230;42.602;23.470;2022-12-18T02:23:33;6.63;;;5.53;;
11052;SDS011;55230;42.602;23.470;2022-12-18T02:26:14;7.20;;;5.83;;
11052;SDS011;55230;42.602;23.470;2022-12-18T02:28:46;8.27;;;5.70;;
11052;SDS011;55230;42.602;23.470;2022-12-18T02:31:19;7.73;;;5.57;;
11052;SDS011;55230;42.602;23.470;2022-12-18T02:33:49;7.37;;;6.17;;
11052;SDS011;55230;42.602;23.470;2022-12-18T02:36:18;8.07;;;6.30;;
11052;SDS011;55230;42.602;23.470;2022-12-18T02:38:48;7.43;;;6.37;;
11052;SDS011;55230;42.602;23.470;2022-12-18T02:41:18;8.47;;;6.60;;
11052;SDS011;55230;42.602;23.470;2022-12-18T02:43:47;10.10;;;7.10;;
11052;SDS011;55230;42.602;23.470;2022-12-18T02:46:31;8.70;;;7.17;;
11052;SDS011;55230;42.602;23.470;2022-12-18T02:49:01;9.27;;;6.40;;
11052;SDS011;55230;42.602;23.470;2022-12-18T02:51:37;7.60;;;6.37;;
11052;SDS011;55230;42.602;23.470;2022-12-18T02:54:16;7.83;;;6.10;;
11052;SDS011;55230;42.602;23.470;2022-12-18T02:56:54;8.03;;;6.40;;
11052;SDS011;55230;42.602;23.470;2022-12-18T02:59:25;8.47;;;6.90;;
11052;SDS011;55230;42.602;23.470;2022-12-18T03:02:02;9.87;;;6.50;;
11052;SDS011;55230;42.602;23.470;2022-12-18T03:04:45;10.17;;;7.00;;
11052;SDS011;55230;42.602;23.470;2022-12-18T03:07:18;8.03;;;6.53;;
11052;SDS011;55230;42.602;23.470;2022-12-18T03:09:54;9.27;;;7.40;;
11052;SDS011;55230;42.602;23.470;2022-12-18T03:12:24;9.83;;;7.37;;
11052;SDS011;55230;42.602;23.470;2022-12-18T03:14:56;10.00;;;7.10;;
11052;SDS011;55230;42.602;23.470;2022-12-18T03:17:27;8.93;;;6.63;;
11052;SDS011;55230;42.602;23.470;2022-12-18T03:19:58;8.37;;;6.77;;
11052;SDS011;55230;42.602;23.470;2022-12-18T03:22:30;8.37;;;7.00;;
11052;SDS011;55230;42.602;23.470;2022-12-18T03:24:59;8.43;;;6.60;;
11052;SDS011;55230;42.602;23.470;2022-12-18T03:27:30;7.87;;;6.37;;
11052;SDS011;55230;42.602;23.470;2022-12-18T03:30:00;8.00;;;6.43;;
11052;SDS011;55230;42.602;23.470;2022-12-18T03:32:33;7.67;;;6.47;;
11052;SDS011;55230;42.602;23.470;2022-12-18T03:35:06;8.37;;;6.07;;
11052;SDS011;55230;42.602;23.470;2022-12-18T03:37:34;6.77;;;5.90;;
11052;SDS011;55230;42.602;23.470;2022-12-18T03:40:01;8.30;;;6.13;;
11052;SDS011;55230;42.602;23.470;2022-12-18T03:42:31;8.50;;;6.17;;
11052;SDS011;55230;42.602;23.470;2022-12-18T03:45:06;8.27;;;6.10;;
11052;SDS011;55230;42.602;23.470;2022-12-18T03:47:39;7.60;;;6.07;;
11052;SDS011;55230;42.602;23.470;2022-12-18T03:50:14;8.70;;;6.93;;
11052;SDS011;55230;42.602;23.470;2022-12-18T03:52:46;7.20;;;6.13;;
11052;SDS011;55230;42.602;23.470;2022-12-18T03:55:20;7.60;;;6.03;;
11052;SDS011;55230;42.602;23.470;2022-12-18T03:57:49;9.10;;;6.23;;
11052;SDS011;55230;42.602;23.470;2022-12-18T04:00:18;7.53;;;5.97;;
11052;SDS011;55230;42.602;23.470;2022-12-18T04:02:47;9.43;;;6.77;;
11052;SDS011;55230;42.602;23.470;2022-12-18T04:05:18;12.43;;;6.90;;
11052;SDS011;55230;42.602;23.470;2022-12-18T04:07:46;8.83;;;6.50;;
11052;SDS011;55230;42.602;23.470;2022-12-18T04:10:15;9.53;;;6.87;;
11052;SDS011;55230;42.602;23.470;2022-12-18T04:12:43;10.37;;;7.13;;
11052;SDS011;55230;42.602;23.470;2022-12-18T04:15:11;8.20;;;6.70;;
11052;SDS011;55230;42.602;23.470;2022-12-18T04:17:39;11.43;;;7.87;;
11052;SDS011;55230;42.602;23.470;2022-12-18T04:20:12;10.20;;;7.47;;
11052;SDS011;55230;42.602;23.470;2022-12-18T04:22:39;11.10;;;7.53;;
11052;SDS011;55230;42.602;23.470;2022-12-18T04:25:06;11.17;;;7.13;;
11052;SDS011;55230;42.602;23.470;2022-12-18T04:27:34;8.20;;;6.60;;
11052;SDS011;55230;42.602;23.470;2022-12-18T04:30:00;10.93;;;6.57;;
11052;SDS011;55230;42.602;23.470;2022-12-18T04:32:29;10.43;;;7.13;;
11052;SDS011;55230;42.602;23.470;2022-12-18T04:34:55;9.87;;;7.70;;
11052;SDS011;55230;42.602;23.470;2022-12-18T04:37:22;8.63;;;6.80;;
11052;SDS011;55230;42.602;23.470;2022-12-18T04:39:49;10.63;;;7.50;;
11052;SDS011;55230;42.602;23.470;2022-12-18T04:42:16;10.93;;;7.80;;
11052;SDS011;55230;42.602;23.470;2022-12-18T04:44:42;9.60;;;7.03;;
11052;SDS011;55230;42.602;23.470;2022-12-18T04:47:09;10.07;;;6.57;;
11052;SDS011;55230;42.602;23.470;2022-12-18T04:49:37;10.17;;;7.33;;
11052;SDS011;55230;42.602;23.470;2022-12-18T04:52:04;9.23;;;6.97;;
11052;SDS011;55230;42.602;23.470;2022-12-18T04:54:31;9.53;;;7.20;;
11052;SDS011;55230;42.602;23.470;2022-12-18T04:56:57;9.13;;;7.10;;
11052;SDS011;55230;42.602;23.470;2022-12-18T04:59:24;9.27;;;7.33;;
11052;SDS011;55230;42.602;23.470;2022-12-18T05:01:51;10.83;;;7.60;;
11052;SDS011;55230;42.602;23.470;2022-12-18T05:04:18;9.83;;;7.07;;
11052;SDS011;55230;42.602;23.470;2022-12-18T05:06:46;10.43;;;7.53;;
11052;SDS011;55230;42.602;23.470;2022-12-18T05:09:13;8.27;;;7.20;;
11052;SDS011;55230;42.602;23.470;2022-12-18T05:11:39;11.53;;;7.47;;
11052;SDS011;55230;42.602;23.470;2022-12-18T05:14:06;10.57;;;7.67;;
11052;SDS011;55230;42.602;23.470;2022-12-18T05:16:33;11.13;;;8.80;;
11052;SDS011;55230;42.602;23.470;2022-12-18T05:19:00;11.57;;;8.03;;
11052;SDS011;55230;42.602;23.470;2022-12-18T05:21:26;9.80;;;7.43;;
11052;SDS011;55230;42.602;23.470;2022-12-18T05:23:54;12.77;;;7.90;;
11052;SDS011;55230;42.602;23.470;2022-12-18T05:26:21;9.37;;;6.97;;
11052;SDS011;55230;42.602;23.470;2022-12-18T05:28:48;10.40;;;7.90;;
11052;SDS011;55230;42.602;23.470;2022-12-18T05:31:15;11.50;;;8.03;;
11052;SDS011;55230;42.602;23.470;2022-12-18T05:33:41;11.40;;;7.53;;
11052;SDS011;55230;42.602;23.470;2022-12-18T05:36:08;10.83;;;8.27;;
11052;SDS011;55230;42.602;23.470;2022-12-18T05:38:37;11.23;;;7.93;;
11052;SDS011;55230;42.602;23.470;2022-12-18T05:41:06;10.60;;;7.63;;
11052;SDS011;55230;42.602;23.470;2022-12-18T05:43:34;10.03;;;7.73;;
11052;SDS011;55230;42.602;23.470;2022-12-18T05:46:05;12.13;;;8.53;;
11052;SDS011;55230;42.602;23.470;2022-12-18T05:48:33;11.40;;;7.53;;
11052;SDS011;55230;42.602;23.470;2022-12-18T05:51:03;11.23;;;8.03;;
11052;SDS011;55230;42.602;23.470;2022-12-18T05:53:32;15.30;;;9.43;;
11052;SDS011;55230;42.602;23.470;2022-12-18T05:55:59;11.50;;;8.07;;
11052;SDS011;55230;42.602;23.470;2022-12-18T05:58:29;12.73;;;9.20;;
11052;SDS011;55230;42.602;23.470;2022-12-18T06:00:56;12.83;;;8.17;;
11052;SDS011;55230;42.602;23.470;2022-12-18T06:03:24;14.43;;;8.83;;
11052;SDS011;55230;42.602;23.470;2022-12-18T06:05:50;11.47;;;8.10;;
11052;SDS011;55230;42.602;23.470;2022-12-18T06:08:17;11.23;;;8.00;;
11052;SDS011;55230;42.602;23.470;2022-12-18T06:10:49;12.03;;;8.43;;
11052;SDS011;55230;42.602;23.470;2022-12-18T06:13:16;12.63;;;8.83;;
11052;SDS011;55230;42.602;23.470;2022-12-18T06:15:44;12.67;;;8.80;;
11052;SDS011;55230;42.602;23.470;2022-12-18T06:18:11;12.37;;;9.17;;
11052;SDS011;55230;42.602;23.470;2022-12-18T06:20:38;13.37;;;8.73;;
11052;SDS011;55230;42.602;23.470;2022-12-18T06:23:06;14.87;;;8.27;;
11052;SDS011;55230;42.602;23.470;2022-12-18T06:25:33;12.47;;;8.67;;
11052;SDS011;55230;42.602;23.470;2022-12-18T06:28:00;11.87;;;8.20;;
11052;SDS011;55230;42.602;23.470;2022-12-18T06:30:26;19.57;;;13.80;;
11052;SDS011;55230;42.602;23.470;2022-12-18T06:32:54;13.83;;;9.90;;
11052;SDS011;55230;42.602;23.470;2022-12-18T06:35:21;12.97;;;8.97;;
11052;SDS011;55230;42.602;23.470;2022-12-18T06:37:48;13.87;;;9.73;;
11052;SDS011;55230;42.602;23.470;2022-12-18T06:40:15;14.80;;;9.50;;
11052;SDS011;55230;42.602;23.470;2022-12-18T06:42:42;12.77;;;8.83;;
11052;SDS011;55230;42.602;23.470;2022-12-18T06:45:09;12.50;;;8.73;;
11052;SDS011;55230;42.602;23.470;2022-12-18T06:47:36;14.53;;;9.57;;
11052;SDS011;55230;42.602;23.470;2022-12-18T06:50:04;13.10;;;9.23;;
11052;SDS011;55230;42.602;23.470;2022-12-18T06:52:32;16.07;;;9.90;;
11052;SDS011;55230;42.602;23.470;2022-12-18T06:54:59;13.07;;;8.93;;
11052;SDS011;55230;42.602;23.470;2022-12-18T06:57:26;14.60;;;9.47;;
11052;SDS011;55230;42.602;23.470;2022-12-18T06:59:53;13.90;;;9.43;;
11052;SDS011;55230;42.602;23.470;2022-12-18T07:02:19;14.63;;;9.83;;
11052;SDS011;55230;42.602;23.470;2022-12-18T07:04:49;17.77;;;13.00;;
11052;SDS011;55230;42.602;23.470;2022-12-18T07:07:17;16.50;;;12.30;;
11052;SDS011;55230;42.602;23.470;2022-12-18T07:09:44;19.27;;;13.10;;
11052;SDS011;55230;42.602;23.470;2022-12-18T07:12:10;15.13;;;10.27;;
11052;SDS011;55230;42.602;23.470;2022-12-18T07:14:37;14.30;;;9.57;;
11052;SDS011;55230;42.602;23.470;2022-12-18T07:17:04;15.00;;;9.87;;
11052;SDS011;55230;42.602;23.470;2022-12-18T07:19:31;15.13;;;9.97;;
11052;SDS011;55230;42.602;23.470;2022-12-18T07:21:57;16.27;;;10.23;;
11052;SDS011;55230;42.602;23.470;2022-12-18T07:24:26;13.73;;;9.77;;
11052;SDS011;55230;42.602;23.470;2022-12-18T07:26:52;14.67;;;9.77;;
11052;SDS011;55230;42.602;23.470;2022-12-18T07:29:19;14.63;;;10.40;;
11052;SDS011;55230;42.602;23.470;2022-12-18T07:31:46;14.27;;;9.63;;
11052;SDS011;55230;42.602;23.470;2022-12-18T07:34:14;15.30;;;9.70;;
11052;SDS011;55230;42.602;23.470;2022-12-18T07:36:41;16.03;;;9.97;;
11052;SDS011;55230;42.602;23.470;2022-12-18T07:39:07;14.43;;;10.00;;
11052;SDS011;55230;42.602;23.470;2022-12-18T07:41:36;15.27;;;9.83;;
11052;SDS011;55230;42.602;23.470;2022-12-18T07:44:03;14.43;;;9.97;;
11052;SDS011;55230;42.602;23.470;2022-12-18T07:46:30;16.40;;;9.83;;
11052;SDS011;55230;42.602;23.470;2022-12-18T07:48:56;14.67;;;9.53;;
11052;SDS011;55230;42.602;23.470;2022-12-18T07:51:23;15.33;;;9.80;;
11052;SDS011;55230;42.602;23.470;2022-12-18T07:53:50;16.63;;;11.20;;
11052;SDS011;55230;42.602;23.470;2022-12-18T07:56:16;18.00;;;11.77;;
11052;SDS011;55230;42.602;23.470;2022-12-18T07:58:47;16.13;;;11.40;;
11052;SDS011;55230;42.602;23.470;2022-12-18T08:01:14;16.47;;;11.00;;
11052;SDS011;55230;42.602;23.470;2022-12-18T08:03:41;16.73;;;10.10;;
11052;SDS011;55230;42.602;23.470;2022-12-18T08:06:08;18.50;;;12.03;;
11052;SDS011;55230;42.602;23.470;2022-12-18T08:08:36;16.30;;;11.07;;
11052;SDS011;55230;42.602;23.470;2022-12-18T08:11:03;26.03;;;18.67;;
11052;SDS011;55230;42.602;23.470;2022-12-18T08:13:30;16.87;;;12.07;;
11052;SDS011;55230;42.602;23.470;2022-12-18T08:15:58;15.40;;;10.43;;
11052;SDS011;55230;42.602;23.470;2022-12-18T08:18:28;15.33;;;10.10;;
11052;SDS011;55230;42.602;23.470;2022-12-18T08:20:55;17.33;;;11.23;;
11052;SDS011;55230;42.602;23.470;2022-12-18T08:23:27;14.30;;;10.27;;
11052;SDS011;55230;42.602;23.470;2022-12-18T08:25:54;18.07;;;9.93;;
11052;SDS011;55230;42.602;23.470;2022-12-18T08:28:20;15.03;;;10.00;;
11052;SDS011;55230;42.602;23.470;2022-12-18T08:30:51;18.10;;;11.73;;
11052;SDS011;55230;42.602;23.470;2022-12-18T08:33:19;18.13;;;10.97;;
11052;SDS011;55230;42.602;23.470;2022-12-18T08:35:46;16.13;;;10.03;;
11052;SDS011;55230;42.602;23.470;2022-12-18T08:38:12;15.90;;;10.50;;
11052;SDS011;55230;42.602;23.470;2022-12-18T08:40:39;14.73;;;10.10;;
11052;SDS011;55230;42.602;23.470;2022-12-18T08:43:07;20.60;;;13.07;;
11052;SDS011;55230;42.602;23.470;2022-12-18T08:45:53;17.50;;;10.77;;
11052;SDS011;55230;42.602;23.470;2022-12-18T08:48:24;15.27;;;9.93;;
11052;SDS011;55230;42.602;23.470;2022-12-18T08:50:54;16.93;;;10.70;;
11052;SDS011;55230;42.602;23.470;2022-12-18T08:53:24;15.53;;;10.40;;
11052;SDS011;55230;42.602;23.470;2022-12-18T08:55:51;15.03;;;10.37;;
11052;SDS011;55230;42.602;23.470;2022-12-18T08:58:18;18.20;;;11.70;;
11052;SDS011;55230;42.602;23.470;2022-12-18T09:00:45;16.43;;;11.07;;
11052;SDS011;55230;42.602;23.470;2022-12-18T09:03:12;20.97;;;14.17;;
11052;SDS011;55230;42.602;23.470;2022-12-18T09:05:41;19.20;;;12.00;;
11052;SDS011;55230;42.602;23.470;2022-12-18T09:08:08;17.73;;;11.60;;
11052;SDS011;55230;42.602;23.470;2022-12-18T09:10:40;18.47;;;11.63;;
11052;SDS011;55230;42.602;23.470;2022-12-18T09:13:08;18.83;;;12.57;;
11052;SDS011;55230;42.602;23.470;2022-12-18T09:15:39;17.80;;;11.13;;
11052;SDS011;55230;42.602;23.470;2022-12-18T09:18:07;18.37;;;11.13;;
11052;SDS011;55230;42.602;23.470;2022-12-18T09:20:34;16.93;;;11.13;;
11052;SDS011;55230;42.602;23.470;2022-12-18T09:23:02;15.93;;;11.50;;
11052;SDS011;55230;42.602;23.470;2022-12-18T09:25:30;16.67;;;11.03;;
11052;SDS011;55230;42.602;23.470;2022-12-18T09:28:00;17.60;;;11.43;;
11052;SDS011;55230;42.602;23.470;2022-12-18T09:30:27;18.70;;;11.97;;
11052;SDS011;55230;42.602;23.470;2022-12-18T09:32:54;19.80;;;11.63;;
11052;SDS011;55230;42.602;23.470;2022-12-18T09:35:22;17.43;;;11.73;;
11052;SDS011;55230;42.602;23.470;2022-12-18T09:37:50;19.13;;;12.37;;
11052;SDS011;55230;42.602;23.470;2022-12-18T09:40:19;19.23;;;12.13;;
11052;SDS011;55230;42.602;23.470;2022-12-18T09:42:49;16.13;;;11.27;;
11052;SDS011;55230;42.602;23.470;2022-12-18T09:45:20;20.20;;;13.43;;
11052;SDS011;55230;42.602;23.470;2022-12-18T09:47:52;20.60;;;13.70;;
11052;SDS011;55230;42.602;23.470;2022-12-18T09:50:26;19.90;;;12.37;;
11052;SDS011;55230;42.602;23.470;2022-12-18T09:52:57;19.23;;;13.20;;
11052;SDS011;55230;42.602;23.470;2022-12-18T09:55:30;19.27;;;13.23;;
11052;SDS011;55230;42.602;23.470;2022-12-18T09:58:02;28.77;;;16.37;;
11052;SDS011;55230;42.602;23.470;2022-12-18T10:00:36;22.77;;;14.93;;
11052;SDS011;55230;42.602;23.470;2022-12-18T10:03:08;19.07;;;12.17;;
11052;SDS011;55230;42.602;23.470;2022-12-18T10:05:37;19.00;;;11.50;;
11052;SDS011;55230;42.602;23.470;2022-12-18T10:08:11;16.40;;;11.50;;
11052;SDS011;55230;42.602;23.470;2022-12-18T10:10:46;23.23;;;15.00;;
11052;SDS011;55230;42.602;23.470;2022-12-18T10:13:19;16.57;;;10.47;;
11052;SDS011;55230;42.602;23.470;2022-12-18T10:15:55;17.20;;;10.83;;
11052;SDS011;55230;42.602;23.470;2022-12-18T10:18:34;16.87;;;11.13;;
11052;SDS011;55230;42.602;23.470;2022-12-18T10:21:11;17.30;;;11.37;;
11052;SDS011;55230;42.602;23.470;2022-12-18T10:23:44;20.23;;;12.03;;
11052;SDS011;55230;42.602;23.470;2022-12-18T10:26:19;19.70;;;12.87;;
11052;SDS011;55230;42.602;23.470;2022-12-18T10:28:46;17.03;;;11.13;;
11052;SDS011;55230;42.602;23.470;2022-12-18T10:31:14;17.03;;;10.87;;
11052;SDS011;55230;42.602;23.470;2022-12-18T10:33:43;17.33;;;10.73;;
11052;SDS011;55230;42.602;23.470;2022-12-18T10:36:10;15.60;;;11.17;;
11052;SDS011;55230;42.602;23.470;2022-12-18T10:38:37;16.60;;;10.73;;
11052;SDS011;55230;42.602;23.470;2022-12-18T10:41:05;17.47;;;11.43;;
11052;SDS011;55230;42.602;23.470;2022-12-18T10:43:54;17.07;;;10.57;;
11052;SDS011;55230;42.602;23.470;2022-12-18T10:46:37;17.07;;;11.23;;
11052;SDS011;55230;42.602;23.470;2022-12-18T10:49:05;16.87;;;11.50;;
11052;SDS011;55230;42.602;23.470;2022-12-18T10:51:32;18.60;;;12.33;;
11052;SDS011;55230;42.602;23.470;2022-12-18T10:54:01;20.67;;;13.53;;
11052;SDS011;55230;42.602;23.470;2022-12-18T10:56:31;17.00;;;12.07;;
11052;SDS011;55230;42.602;23.470;2022-12-18T10:59:03;14.77;;;9.77;;
11052;SDS011;55230;42.602;23.470;2022-12-18T11:01:33;21.73;;;14.67;;
11052;SDS011;55230;42.602;23.470;2022-12-18T11:04:15;16.97;;;11.33;;
11052;SDS011;55230;42.602;23.470;2022-12-18T11:06:52;17.83;;;11.23;;
11052;SDS011;55230;42.602;23.470;2022-12-18T11:09:22;23.40;;;14.27;;
11052;SDS011;55230;42.602;23.470;2022-12-18T11:11:50;21.07;;;12.07;;
11052;SDS011;55230;42.602;23.470;2022-12-18T11:14:21;17.43;;;11.27;;
11052;SDS011;55230;42.602;23.470;2022-12-18T11:16:50;21.93;;;12.20;;
11052;SDS011;55230;42.602;23.470;2022-12-18T11:19:22;18.33;;;11.60;;
11052;SDS011;55230;42.602;23.470;2022-12-18T11:21:58;19.90;;;12.40;;
11052;SDS011;55230;42.602;23.470;2022-12-18T11:24:29;18.30;;;11.80;;
11052;SDS011;55230;42.602;23.470;2022-12-18T11:26:59;18.53;;;12.30;;
11052;SDS011;55230;42.602;23.470;2022-12-18T11:29:35;19.27;;;12.27;;
11052;SDS011;55230;42.602;23.470;2022-12-18T11:32:20;19.43;;;11.80;;
11052;SDS011;55230;42.602;23.470;2022-12-18T11:34:58;19.00;;;11.40;;
11052;SDS011;55230;42.602;23.470;2022-12-18T11:37:29;18.93;;;11.73;;
11052;SDS011;55230;42.602;23.470;2022-12-18T11:40:02;17.07;;;11.13;;
11052;SDS011;55230;42.602;23.470;2022-12-18T11:42:38;17.03;;;10.60;;
11052;SDS011;55230;42.602;23.470;2022-12-18T11:45:20;16.40;;;10.77;;
11052;SDS011;55230;42.602;23.470;2022-12-18T11:47:55;18.83;;;11.93;;
11052;SDS011;55230;42.602;23.470;2022-12-18T11:50:30;17.00;;;11.33;;
11052;SDS011;55230;42.602;23.470;2022-12-18T11:53:18;16.40;;;11.03;;
11052;SDS011;55230;42.602;23.470;2022-12-18T11:56:08;18.03;;;11.17;;
11052;SDS011;55230;42.602;23.470;2022-12-18T11:58:53;18.03;;;11.70;;
11052;SDS011;55230;42.602;23.470;2022-12-18T12:01:35;17.03;;;10.57;;
11052;SDS011;55230;42.602;23.470;2022-12-18T12:07:27;19.27;;;11.50;;
11052;SDS011;55230;42.602;23.470;2022-12-18T12:10:04;17.97;;;11.57;;
11052;SDS011;55230;42.602;23.470;2022-12-18T12:12:44;16.53;;;10.37;;
11052;SDS011;55230;42.602;23.470;2022-12-18T12:15:25;18.70;;;12.03;;
11052;SDS011;55230;42.602;23.470;2022-12-18T12:18:05;17.20;;;11.20;;
11052;SDS011;55230;42.602;23.470;2022-12-18T12:20:47;15.27;;;10.13;;
11052;SDS011;55230;42.602;23.470;2022-12-18T12:23:22;18.43;;;11.87;;
11052;SDS011;55230;42.602;23.470;2022-12-18T12:26:00;15.40;;;10.40;;
11052;SDS011;55230;42.602;23.470;2022-12-18T12:28:35;18.80;;;11.90;;
11052;SDS011;55230;42.602;23.470;2022-12-18T12:31:32;15.17;;;10.90;;
11052;SDS011;55230;42.602;23.470;2022-12-18T12:34:10;16.23;;;11.07;;
11052;SDS011;55230;42.602;23.470;2022-12-18T12:36:49;15.00;;;10.00;;
11052;SDS011;55230;42.602;23.470;2022-12-18T12:39:30;20.63;;;11.40;;
11052;SDS011;55230;42.602;23.470;2022-12-18T12:42:00;17.00;;;11.67;;
11052;SDS011;55230;42.602;23.470;2022-12-18T12:44:46;18.50;;;12.03;;
11052;SDS011;55230;42.602;23.470;2022-12-18T12:47:18;17.70;;;11.37;;
11052;SDS011;55230;42.602;23.470;2022-12-18T12:49:52;18.63;;;11.67;;
11052;SDS011;55230;42.602;23.470;2022-12-18T12:52:22;19.10;;;11.77;;
11052;SDS011;55230;42.602;23.470;2022-12-18T12:54:56;19.53;;;11.40;;
11052;SDS011;55230;42.602;23.470;2022-12-18T12:57:26;18.37;;;11.07;;
11052;SDS011;55230;42.602;23.470;2022-12-18T13:00:01;18.00;;;11.47;;
11052;SDS011;55230;42.602;23.470;2022-12-18T13:02:33;16.73;;;11.10;;
11052;SDS011;55230;42.602;23.470;2022-12-18T13:05:08;16.93;;;11.20;;
11052;SDS011;55230;42.602;23.470;2022-12-18T13:07:45;16.33;;;12.10;;
11052;SDS011;55230;42.602;23.470;2022-12-18T13:10:25;16.90;;;11.27;;
11052;SDS011;55230;42.602;23.470;2022-12-18T13:12:57;17.73;;;11.70;;
11052;SDS011;55230;42.602;23.470;2022-12-18T13:15:29;20.37;;;12.70;;
11052;SDS011;55230;42.602;23.470;2022-12-18T13:18:03;24.83;;;15.27;;
11052;SDS011;55230;42.602;23.470;2022-12-18T13:20:43;25.27;;;16.60;;
11052;SDS011;55230;42.602;23.470;2022-12-18T13:23:26;20.00;;;14.70;;
11052;SDS011;55230;42.602;23.470;2022-12-18T13:25:58;19.47;;;12.57;;
11052;SDS011;55230;42.602;23.470;2022-12-18T13:28:52;20.27;;;13.23;;
11052;SDS011;55230;42.602;23.470;2022-12-18T13:34:35;30.33;;;17.97;;
11052;SDS011;55230;42.602;23.470;2022-12-18T13:43:28;22.43;;;14.07;;
11052;SDS011;55230;42.602;23.470;2022-12-18T13:46:00;23.27;;;13.90;;
11052;SDS011;55230;42.602;23.470;2022-12-18T13:48:31;24.20;;;16.97;;
11052;SDS011;55230;42.602;23.470;2022-12-18T13:51:00;22.13;;;14.37;;
11052;SDS011;55230;42.602;23.470;2022-12-18T13:53:31;19.57;;;12.93;;
11052;SDS011;55230;42.602;23.470;2022-12-18T13:56:02;18.63;;;12.43;;
11052;SDS011;55230;42.602;23.470;2022-12-18T13:58:31;20.50;;;13.00;;
11052;SDS011;55230;42.602;23.470;2022-12-18T14:00:58;21.50;;;14.20;;
11052;SDS011;55230;42.602;23.470;2022-12-18T14:03:27;19.23;;;12.97;;
11052;SDS011;55230;42.602;23.470;2022-12-18T14:05:56;19.57;;;12.70;;
11052;SDS011;55230;42.602;23.470;2022-12-18T14:08:33;19.80;;;13.60;;
11052;SDS011;55230;42.602;23.470;2022-12-18T14:11:04;19.27;;;13.63;;
11052;SDS011;55230;42.602;23.470;2022-12-18T14:13:33;22.17;;;14.57;;
11052;SDS011;55230;42.602;23.470;2022-12-18T14:16:03;21.67;;;13.77;;
11052;SDS011;55230;42.602;23.470;2022-12-18T14:18:36;17.60;;;12.50;;
11052;SDS011;55230;42.602;23.470;2022-12-18T14:21:16;19.17;;;13.00;;
11052;SDS011;55230;42.602;23.470;2022-12-18T14:23:46;22.27;;;14.80;;
11052;SDS011;55230;42.602;23.470;2022-12-18T14:26:19;22.93;;;14.83;;
11052;SDS011;55230;42.602;23.470;2022-12-18T14:28:49;21.20;;;14.40;;
11052;SDS011;55230;42.602;23.470;2022-12-18T14:31:19;22.50;;;15.03;;
11052;SDS011;55230;42.602;23.470;2022-12-18T14:34:03;21.53;;;12.90;;
11052;SDS011;55230;42.602;23.470;2022-12-18T14:36:30;20.53;;;12.67;;
11052;SDS011;55230;42.602;23.470;2022-12-18T14:38:58;22.37;;;12.53;;
11052;SDS011;55230;42.602;23.470;2022-12-18T14:41:25;33.00;;;20.70;;
11052;SDS011;55230;42.602;23.470;2022-12-18T14:43:54;22.77;;;14.43;;
11052;SDS011;55230;42.602;23.470;2022-12-18T14:46:28;20.77;;;13.23;;
11052;SDS011;55230;42.602;23.470;2022-12-18T14:48:59;23.23;;;14.73;;
11052;SDS011;55230;42.602;23.470;2022-12-18T14:51:28;22.07;;;14.53;;